X

Important NEWS



New Hub Active

Miami is our new hub! Old members can request transfer via hr@dlxairways.net

Thank you very much and have nice flight.


Deluxe Airways.

X

Tours



Hello again, we created one nice test tour for all pilots to attend. also this is ment to be testing of our tour system

Available Tours

If you find some issues please inform us.

Thank you very much and have nice flight.


Deluxe Airways.

 METAR AND TAF INFORMATION
ArrayMETAR FOR LYPG
998649 5 LYPG 191100Z 00000KT 9999 FEW020 SCT034 OVC070 07/07 Q1017 NOSIG LYPG 2019-01-19T11:00:00Z 42.37 19.25 7.0 7.0 0 0 6.21 30.029528 TRUE VFR METAR 43.0 LYPG 191030Z VRB01KT 9999 FEW020 SCT034 BKN070 07/07 Q1017 NOSIG LYPG 2019-01-19T10:30:00Z 42.37 19.25 7.0 7.0 0 1 6.21 30.029528 TRUE VFR METAR 43.0 LYPG 191000Z VRB01KT 9999 FEW020 SCT034 BKN070 06/06 Q1018 NOSIG LYPG 2019-01-19T10:00:00Z 42.37 19.25 6.0 6.0 0 1 6.21 30.059055 TRUE VFR METAR 43.0 LYPG 190930Z VRB02KT 8000 -RA FEW007 BKN030 OVC070 06/06 Q1018 NOSIG LYPG 2019-01-19T09:30:00Z 42.37 19.25 6.0 6.0 0 2 4.97 30.059055 TRUE -RA MVFR METAR 43.0

 AIRPORT MAP

 RUNWAY INFORMATION
Runway 08 Runway length 7145 ft Runway width 50 ft
Runway elevation 0 ft Runway displaced threshold 0 ft Runway heading 86
Runway 26 Runway length 7145 ft Runway width 50 ft
Runway elevation 0 ft Runway displaced threshold 0 ft Runway heading 266
Runway 18 Runway length 8202 ft Runway width 148 ft
Runway elevation 118 ft Runway displaced threshold 0 ft Runway heading 184
Runway 36 Runway length 8202 ft Runway width 148 ft
Runway elevation 82 ft Runway displaced threshold 0 ft Runway heading 4

 AIRPORT FREQUENCIES
Type APP Name APP Frequency 118.7 MHZ
Type TWR Name TWR Frequency 118.2 MHZ

 AIRPORT NEAR NAVIGATION AIDS
Type NDB Name Podgorica Frequency 312 KHZ
Type VOR-DME Name Podgorica Frequency 113000 KHZ
Type NDB Name Podgorica Frequency 335 KHZ



Powered by Virtual Airlines Manager [v2.6.2]

Template code change by DeluxeAir